sensor_id;sensor_type;location;lat;lon;timestamp;pressure;altitude;pressure_sealevel;temperature;humidity
80321;BME280;69633;47.066;15.450;2023-07-30T00:02:20;97343.16;;;20.15;80.72
80321;BME280;69633;47.066;15.450;2023-07-30T00:04:47;97341.94;;;20.23;80.20
80321;BME280;69633;47.066;15.450;2023-07-30T00:07:14;97346.50;;;20.33;80.60
80321;BME280;69633;47.066;15.450;2023-07-30T00:09:40;97334.22;;;20.29;80.05
80321;BME280;69633;47.066;15.450;2023-07-30T00:12:06;97329.53;;;20.36;79.94
80321;BME280;69633;47.066;15.450;2023-07-30T00:14:33;97331.91;;;20.27;80.45
80321;BME280;69633;47.066;15.450;2023-07-30T00:16:59;97324.25;;;20.18;81.22
80321;BME280;69633;47.066;15.450;2023-07-30T00:19:26;97315.44;;;20.11;80.78
80321;BME280;69633;47.066;15.450;2023-07-30T00:21:53;97314.63;;;20.17;80.89
80321;BME280;69633;47.066;15.450;2023-07-30T00:24:19;97306.47;;;20.24;80.53
80321;BME280;69633;47.066;15.450;2023-07-30T00:26:45;97307.63;;;20.27;80.82
80321;BME280;69633;47.066;15.450;2023-07-30T00:29:13;97302.22;;;20.34;79.75
80321;BME280;69633;47.066;15.450;2023-07-30T00:31:39;97300.31;;;20.31;80.30
80321;BME280;69633;47.066;15.450;2023-07-30T00:34:04;97306.16;;;20.19;80.36
80321;BME280;69633;47.066;15.450;2023-07-30T00:36:33;97303.88;;;20.14;80.82
80321;BME280;69633;47.066;15.450;2023-07-30T00:38:58;97312.69;;;20.21;80.55
80321;BME280;69633;47.066;15.450;2023-07-30T00:41:24;97308.06;;;20.22;81.35
80321;BME280;69633;47.066;15.450;2023-07-30T00:43:50;97306.59;;;20.10;81.36
80321;BME280;69633;47.066;15.450;2023-07-30T00:46:17;97306.97;;;20.16;80.79
80321;BME280;69633;47.066;15.450;2023-07-30T00:48:42;97302.66;;;20.22;80.23
80321;BME280;69633;47.066;15.450;2023-07-30T00:51:09;97304.94;;;20.31;80.12
80321;BME280;69633;47.066;15.450;2023-07-30T00:53:37;97308.75;;;20.33;80.33
80321;BME280;69633;47.066;15.450;2023-07-30T00:56:03;97304.91;;;20.34;79.70
80321;BME280;69633;47.066;15.450;2023-07-30T00:58:29;97304.50;;;20.39;79.81
80321;BME280;69633;47.066;15.450;2023-07-30T01:00:57;97296.84;;;20.27;79.67
80321;BME280;69633;47.066;15.450;2023-07-30T01:03:22;97288.03;;;20.23;80.05
80321;BME280;69633;47.066;15.450;2023-07-30T01:05:48;97291.81;;;20.33;80.19
80321;BME280;69633;47.066;15.450;2023-07-30T01:08:14;97283.75;;;20.29;81.22
80321;BME280;69633;47.066;15.450;2023-07-30T01:10:40;97289.97;;;20.19;80.98
80321;BME280;69633;47.066;15.450;2023-07-30T01:13:09;97297.00;;;20.06;82.08
80321;BME280;69633;47.066;15.450;2023-07-30T01:15:35;97302.81;;;20.04;82.22
80321;BME280;69633;47.066;15.450;2023-07-30T01:18:01;97304.31;;;20.09;82.07
80321;BME280;69633;47.066;15.450;2023-07-30T01:20:32;97302.41;;;20.02;82.17
80321;BME280;69633;47.066;15.450;2023-07-30T01:23:01;97310.56;;;19.95;82.42
80321;BME280;69633;47.066;15.450;2023-07-30T01:25:34;97305.19;;;19.92;82.72
80321;BME280;69633;47.066;15.450;2023-07-30T01:28:01;97309.06;;;19.87;82.98
80321;BME280;69633;47.066;15.450;2023-07-30T01:30:48;97303.72;;;19.80;82.90
80321;BME280;69633;47.066;15.450;2023-07-30T01:33:14;97300.66;;;19.82;82.74
80321;BME280;69633;47.066;15.450;2023-07-30T01:35:42;97304.47;;;19.84;83.27
80321;BME280;69633;47.066;15.450;2023-07-30T01:38:09;97309.78;;;19.95;82.63
80321;BME280;69633;47.066;15.450;2023-07-30T01:40:35;97311.25;;;20.06;81.60
80321;BME280;69633;47.066;15.450;2023-07-30T01:43:01;97315.03;;;20.16;81.27
80321;BME280;69633;47.066;15.450;2023-07-30T01:45:26;97318.84;;;20.22;81.05
80321;BME280;69633;47.066;15.450;2023-07-30T01:47:52;97325.75;;;20.30;80.89
80321;BME280;69633;47.066;15.450;2023-07-30T01:50:17;97329.19;;;20.34;80.89
80321;BME280;69633;47.066;15.450;2023-07-30T01:52:44;97325.81;;;20.16;80.28
80321;BME280;69633;47.066;15.450;2023-07-30T01:55:09;97323.59;;;20.04;80.02
80321;BME280;69633;47.066;15.450;2023-07-30T01:57:35;97322.81;;;20.03;80.23
80321;BME280;69633;47.066;15.450;2023-07-30T02:00:00;97345.19;;;19.97;80.33
80321;BME280;69633;47.066;15.450;2023-07-30T02:02:27;97332.16;;;19.88;80.26
80321;BME280;69633;47.066;15.450;2023-07-30T02:04:53;97337.16;;;19.90;80.27
80321;BME280;69633;47.066;15.450;2023-07-30T02:07:18;97336.00;;;19.87;80.09
80321;BME280;69633;47.066;15.450;2023-07-30T02:09:44;97331.78;;;19.86;80.08
80321;BME280;69633;47.066;15.450;2023-07-30T02:12:09;97332.59;;;19.83;80.45
80321;BME280;69633;47.066;15.450;2023-07-30T02:14:36;97337.59;;;19.81;80.03
80321;BME280;69633;47.066;15.450;2023-07-30T02:17:01;97337.59;;;19.81;80.50
80321;BME280;69633;47.066;15.450;2023-07-30T02:19:27;97332.16;;;19.88;80.03
80321;BME280;69633;47.066;15.450;2023-07-30T02:21:52;97330.19;;;19.92;79.91
80321;BME280;69633;47.066;15.450;2023-07-30T02:24:19;97326.75;;;19.92;79.80
80321;BME280;69633;47.066;15.450;2023-07-30T02:26:44;97320.56;;;19.95;80.36
80321;BME280;69633;47.066;15.450;2023-07-30T02:29:12;97324.47;;;19.87;79.73
80321;BME280;69633;47.066;15.450;2023-07-30T02:31:37;97320.66;;;19.81;80.39
80321;BME280;69633;47.066;15.450;2023-07-30T02:34:03;97319.13;;;19.76;80.38
80321;BME280;69633;47.066;15.450;2023-07-30T02:36:29;97313.38;;;19.74;79.71
80321;BME280;69633;47.066;15.450;2023-07-30T02:38:56;97312.25;;;19.71;80.35
80321;BME280;69633;47.066;15.450;2023-07-30T02:41:23;97321.84;;;19.72;80.14
80321;BME280;69633;47.066;15.450;2023-07-30T02:43:49;97314.94;;;19.71;80.52
80321;BME280;69633;47.066;15.450;2023-07-30T02:46:16;97323.06;;;19.64;79.86
80321;BME280;69633;47.066;15.450;2023-07-30T02:48:42;97321.91;;;19.62;79.49
80321;BME280;69633;47.066;15.450;2023-07-30T02:51:09;97326.91;;;19.63;79.88
80321;BME280;69633;47.066;15.450;2023-07-30T02:53:35;97329.94;;;19.72;79.44
80321;BME280;69633;47.066;15.450;2023-07-30T02:56:00;97333.00;;;19.78;79.92
80321;BME280;69633;47.066;15.450;2023-07-30T02:58:27;97335.31;;;19.72;78.59
80321;BME280;69633;47.066;15.450;2023-07-30T03:00:54;97339.16;;;19.75;78.58
80321;BME280;69633;47.066;15.450;2023-07-30T03:03:21;97336.78;;;19.84;77.89
80321;BME280;69633;47.066;15.450;2023-07-30T03:05:48;97344.09;;;19.91;78.51
80321;BME280;69633;47.066;15.450;2023-07-30T03:08:13;97340.19;;;19.95;78.26
80321;BME280;69633;47.066;15.450;2023-07-30T03:10:39;97342.56;;;19.86;77.86
80321;BME280;69633;47.066;15.450;2023-07-30T03:13:04;97356.81;;;19.87;78.30
80321;BME280;69633;47.066;15.450;2023-07-30T03:15:31;97351.41;;;19.87;78.56
80321;BME280;69633;47.066;15.450;2023-07-30T03:17:56;97368.34;;;19.84;77.91
80321;BME280;69633;47.066;15.450;2023-07-30T03:20:22;97359.53;;;19.83;78.53
80321;BME280;69633;47.066;15.450;2023-07-30T03:22:48;97361.78;;;19.88;78.81
80321;BME280;69633;47.066;15.450;2023-07-30T03:25:14;97367.56;;;19.90;78.30
80321;BME280;69633;47.066;15.450;2023-07-30T03:27:39;97350.59;;;19.97;78.54
80321;BME280;69633;47.066;15.450;2023-07-30T03:30:06;97346.63;;;20.12;77.88
80321;BME280;69633;47.066;15.450;2023-07-30T03:32:31;97350.84;;;20.16;78.11
80321;BME280;69633;47.066;15.450;2023-07-30T03:34:58;97351.66;;;20.06;77.68
80321;BME280;69633;47.066;15.450;2023-07-30T03:37:23;97345.94;;;20.01;78.34
80321;BME280;69633;47.066;15.450;2023-07-30T03:39:48;97349.78;;;20.00;79.11
80321;BME280;69633;47.066;15.450;2023-07-30T03:42:14;97348.66;;;19.97;78.10
80321;BME280;69633;47.066;15.450;2023-07-30T03:44:40;97345.19;;;19.97;78.01
80321;BME280;69633;47.066;15.450;2023-07-30T03:47:05;97338.69;;;19.91;78.67
80321;BME280;69633;47.066;15.450;2023-07-30T03:49:30;97353.38;;;19.79;78.42
80321;BME280;69633;47.066;15.450;2023-07-30T03:51:56;97353.00;;;19.73;78.98
80321;BME280;69633;47.066;15.450;2023-07-30T03:54:21;97357.66;;;19.69;78.97
80321;BME280;69633;47.066;15.450;2023-07-30T03:56:48;97348.03;;;19.68;79.19
80321;BME280;69633;47.066;15.450;2023-07-30T03:59:13;97359.25;;;19.60;79.37
80321;BME280;69633;47.066;15.450;2023-07-30T04:01:39;97356.94;;;19.58;79.51
80321;BME280;69633;47.066;15.450;2023-07-30T04:04:06;97357.72;;;19.55;79.81
80321;BME280;69633;47.066;15.450;2023-07-30T04:06:31;97361.97;;;19.53;80.51
80321;BME280;69633;47.066;15.450;2023-07-30T04:08:58;97363.13;;;19.48;80.48
80321;BME280;69633;47.066;15.450;2023-07-30T04:11:25;97360.81;;;19.40;81.06
80321;BME280;69633;47.066;15.450;2023-07-30T04:13:51;97363.53;;;19.40;81.24
80321;BME280;69633;47.066;15.450;2023-07-30T04:16:17;97357.81;;;19.27;80.03
80321;BME280;69633;47.066;15.450;2023-07-30T04:18:44;97365.47;;;19.32;81.01
80321;BME280;69633;47.066;15.450;2023-07-30T04:21:10;97360.06;;;19.36;80.86
80321;BME280;69633;47.066;15.450;2023-07-30T04:23:36;97356.63;;;19.31;81.22
80321;BME280;69633;47.066;15.450;2023-07-30T04:26:01;97353.94;;;19.28;80.98
80321;BME280;69633;47.066;15.450;2023-07-30T04:28:28;97354.72;;;19.28;81.50
80321;BME280;69633;47.066;15.450;2023-07-30T04:30:53;97353.94;;;19.28;81.13
80321;BME280;69633;47.066;15.450;2023-07-30T04:33:19;97348.56;;;19.24;81.59
80321;BME280;69633;47.066;15.450;2023-07-30T04:35:46;97352.78;;;19.29;81.82
80321;BME280;69633;47.066;15.450;2023-07-30T04:38:12;97352.03;;;19.25;81.42
80321;BME280;69633;47.066;15.450;2023-07-30T04:40:40;97340.13;;;19.22;81.66
80321;BME280;69633;47.066;15.450;2023-07-30T04:43:05;97338.56;;;19.25;82.32
80321;BME280;69633;47.066;15.450;2023-07-30T04:45:32;97332.41;;;19.28;81.78
80321;BME280;69633;47.066;15.450;2023-07-30T04:47:58;97335.47;;;19.37;81.53
80321;BME280;69633;47.066;15.450;2023-07-30T04:50:29;97327.00;;;19.42;80.86
80321;BME280;69633;47.066;15.450;2023-07-30T04:52:55;97320.47;;;19.43;81.05
80321;BME280;69633;47.066;15.450;2023-07-30T04:55:22;97323.13;;;19.50;80.61
80321;BME280;69633;47.066;15.450;2023-07-30T04:57:48;97315.47;;;19.45;80.40
80321;BME280;69633;47.066;15.450;2023-07-30T05:00:15;97328.53;;;19.36;80.80
80321;BME280;69633;47.066;15.450;2023-07-30T05:02:42;97327.38;;;19.41;80.96
80321;BME280;69633;47.066;15.450;2023-07-30T05:05:08;97325.44;;;19.41;80.43
80321;BME280;69633;47.066;15.450;2023-07-30T05:07:33;97326.19;;;19.52;80.05
80321;BME280;69633;47.066;15.450;2023-07-30T05:09:59;97327.72;;;19.53;79.90
80321;BME280;69633;47.066;15.450;2023-07-30T05:12:25;97325.41;;;19.55;80.24
80321;BME280;69633;47.066;15.450;2023-07-30T05:14:52;97329.66;;;19.56;80.00
80321;BME280;69633;47.066;15.450;2023-07-30T05:17:17;97320.81;;;19.52;80.01
80321;BME280;69633;47.066;15.450;2023-07-30T05:19:43;97323.13;;;19.47;80.15
80321;BME280;69633;47.066;15.450;2023-07-30T05:22:11;97331.63;;;19.45;80.90
80321;BME280;69633;47.066;15.450;2023-07-30T05:24:37;97318.53;;;19.47;80.80
80321;BME280;69633;47.066;15.450;2023-07-30T05:27:02;97323.88;;;19.51;80.26
80321;BME280;69633;47.066;15.450;2023-07-30T05:29:28;97328.50;;;19.50;80.72
80321;BME280;69633;47.066;15.450;2023-07-30T05:31:55;97331.59;;;19.52;80.36
80321;BME280;69633;47.066;15.450;2023-07-30T05:34:20;97323.91;;;19.47;81.03
80321;BME280;69633;47.066;15.450;2023-07-30T05:36:48;97333.53;;;19.48;80.65
80321;BME280;69633;47.066;15.450;2023-07-30T05:39:14;97330.06;;;19.44;79.86
80321;BME280;69633;47.066;15.450;2023-07-30T05:41:41;97327.72;;;19.53;80.26
80321;BME280;69633;47.066;15.450;2023-07-30T05:44:06;97324.63;;;19.58;79.72
80321;BME280;69633;47.066;15.450;2023-07-30T05:46:32;97327.28;;;19.65;79.94
80321;BME280;69633;47.066;15.450;2023-07-30T05:49:00;97335.34;;;19.69;79.52
80321;BME280;69633;47.066;15.450;2023-07-30T05:51:26;97338.44;;;19.67;79.72
80321;BME280;69633;47.066;15.450;2023-07-30T05:53:52;97333.03;;;19.71;79.39
80321;BME280;69633;47.066;15.450;2023-07-30T05:56:18;97327.94;;;19.84;78.65
80321;BME280;69633;47.066;15.450;2023-07-30T05:58:45;97325.25;;;19.84;78.49
80321;BME280;69633;47.066;15.450;2023-07-30T06:01:13;97327.56;;;19.82;78.32
80321;BME280;69633;47.066;15.450;2023-07-30T06:03:39;97332.97;;;19.82;78.30
80321;BME280;69633;47.066;15.450;2023-07-30T06:06:06;97337.47;;;19.99;76.84
80321;BME280;69633;47.066;15.450;2023-07-30T06:08:32;97338.84;;;20.21;76.15
80321;BME280;69633;47.066;15.450;2023-07-30T06:11:02;97339.56;;;20.32;75.77
80321;BME280;69633;47.066;15.450;2023-07-30T06:13:28;97335.25;;;20.45;75.81
80321;BME280;69633;47.066;15.450;2023-07-30T06:15:54;97337.84;;;20.56;76.02
80321;BME280;69633;47.066;15.450;2023-07-30T06:18:20;97338.56;;;20.63;77.47
80321;BME280;69633;47.066;15.450;2023-07-30T06:20:45;97347.88;;;20.55;78.29
80321;BME280;69633;47.066;15.450;2023-07-30T06:23:12;97361.09;;;20.43;78.91
80321;BME280;69633;47.066;15.450;2023-07-30T06:25:38;97364.22;;;20.34;79.10
80321;BME280;69633;47.066;15.450;2023-07-30T06:28:05;97362.72;;;20.26;79.94
80321;BME280;69633;47.066;15.450;2023-07-30T06:30:34;97370.44;;;20.24;80.09
80321;BME280;69633;47.066;15.450;2023-07-30T06:32:59;97360.44;;;20.28;80.78
80321;BME280;69633;47.066;15.450;2023-07-30T06:35:24;97361.88;;;20.36;80.45
80321;BME280;69633;47.066;15.450;2023-07-30T06:37:51;97359.88;;;20.47;79.58
80321;BME280;69633;47.066;15.450;2023-07-30T06:40:18;97367.13;;;20.57;79.94
80321;BME280;69633;47.066;15.450;2023-07-30T06:42:43;97363.25;;;20.62;79.77
80321;BME280;69633;47.066;15.450;2023-07-30T06:45:09;97363.94;;;20.69;80.54
80321;BME280;69633;47.066;15.450;2023-07-30T06:47:35;97367.69;;;20.83;78.85
80321;BME280;69633;47.066;15.450;2023-07-30T06:50:02;97364.63;;;20.81;78.54
80321;BME280;69633;47.066;15.450;2023-07-30T06:52:28;97369.56;;;20.86;78.39
80321;BME280;69633;47.066;15.450;2023-07-30T06:54:53;97365.34;;;20.85;78.44
80321;BME280;69633;47.066;15.450;2023-07-30T06:57:18;97365.75;;;20.83;77.59
80321;BME280;69633;47.066;15.450;2023-07-30T06:59:45;97361.47;;;20.86;77.23
80321;BME280;69633;47.066;15.450;2023-07-30T07:02:12;97363.16;;;20.72;77.32
80321;BME280;69633;47.066;15.450;2023-07-30T07:04:39;97357.69;;;20.80;77.60
80321;BME280;69633;47.066;15.450;2023-07-30T07:07:06;97359.09;;;20.95;77.04
80321;BME280;69633;47.066;15.450;2023-07-30T07:09:33;97351.16;;;21.18;76.66
80321;BME280;69633;47.066;15.450;2023-07-30T07:11:59;97358.69;;;21.34;75.88
80321;BME280;69633;47.066;15.450;2023-07-30T07:14:25;97362.31;;;21.84;74.22
80321;BME280;69633;47.066;15.450;2023-07-30T07:16:54;97359.09;;;22.23;73.60
80321;BME280;69633;47.066;15.450;2023-07-30T07:19:25;97359.19;;;22.16;72.48
80321;BME280;69633;47.066;15.450;2023-07-30T07:21:50;97351.44;;;22.18;73.31
80321;BME280;69633;47.066;15.450;2023-07-30T07:24:16;97355.22;;;22.24;71.22
80321;BME280;69633;47.066;15.450;2023-07-30T07:26:42;97362.16;;;22.25;71.64
80321;BME280;69633;47.066;15.450;2023-07-30T07:29:09;97363.81;;;22.19;71.47
80321;BME280;69633;47.066;15.450;2023-07-30T07:31:36;97375.88;;;22.11;70.43
80321;BME280;69633;47.066;15.450;2023-07-30T07:34:03;97368.31;;;21.99;71.83
80321;BME280;69633;47.066;15.450;2023-07-30T07:36:30;97366.50;;;22.19;70.57
80321;BME280;69633;47.066;15.450;2023-07-30T07:38:55;97369.16;;;22.73;69.11
80321;BME280;69633;47.066;15.450;2023-07-30T07:41:22;97366.94;;;23.10;67.57
80321;BME280;69633;47.066;15.450;2023-07-30T07:43:47;97363.81;;;23.12;65.30
80321;BME280;69633;47.066;15.450;2023-07-30T07:46:13;97354.47;;;23.17;65.70
80321;BME280;69633;47.066;15.450;2023-07-30T07:48:41;97351.13;;;23.29;64.87
80321;BME280;69633;47.066;15.450;2023-07-30T07:51:09;97355.88;;;23.64;63.75
80321;BME280;69633;47.066;15.450;2023-07-30T07:53:36;97362.09;;;23.41;64.73
80321;BME280;69633;47.066;15.450;2023-07-30T07:56:01;97349.28;;;23.65;64.18
80321;BME280;69633;47.066;15.450;2023-07-30T07:58:27;97353.94;;;23.81;64.59
80321;BME280;69633;47.066;15.450;2023-07-30T08:00:57;97360.34;;;24.26;63.07
80321;BME280;69633;47.066;15.450;2023-07-30T08:03:23;97355.06;;;25.29;60.58
80321;BME280;69633;47.066;15.450;2023-07-30T08:05:49;97357.81;;;25.70;58.94
80321;BME280;69633;47.066;15.450;2023-07-30T08:08:15;97364.19;;;25.22;60.08
80321;BME280;69633;47.066;15.450;2023-07-30T08:10:43;97367.63;;;24.78;61.33
80321;BME280;69633;47.066;15.450;2023-07-30T08:13:11;97373.69;;;24.37;61.58
80321;BME280;69633;47.066;15.450;2023-07-30T08:15:39;97363.06;;;23.90;63.13
80321;BME280;69633;47.066;15.450;2023-07-30T08:18:05;97367.19;;;24.15;62.51
80321;BME280;69633;47.066;15.450;2023-07-30T08:20:30;97368.06;;;23.92;62.67
80321;BME280;69633;47.066;15.450;2023-07-30T08:22:57;97361.50;;;23.73;64.08
80321;BME280;69633;47.066;15.450;2023-07-30T08:25:24;97364.84;;;23.61;64.53
80321;BME280;69633;47.066;15.450;2023-07-30T08:27:50;97363.78;;;24.11;63.41
80321;BME280;69633;47.066;15.450;2023-07-30T08:30:16;97342.84;;;24.60;62.23
80321;BME280;69633;47.066;15.450;2023-07-30T08:32:41;97339.78;;;24.90;61.65
80321;BME280;69633;47.066;15.450;2023-07-30T08:35:08;97339.75;;;25.06;61.34
80321;BME280;69633;47.066;15.450;2023-07-30T08:37:34;97339.97;;;24.99;60.32
80321;BME280;69633;47.066;15.450;2023-07-30T08:39:59;97338.59;;;24.75;61.57
80321;BME280;69633;47.066;15.450;2023-07-30T08:42:25;97337.19;;;24.70;61.54
80321;BME280;69633;47.066;15.450;2023-07-30T08:44:51;97332.94;;;24.85;61.79
80321;BME280;69633;47.066;15.450;2023-07-30T08:47:18;97340.28;;;25.01;61.68
80321;BME280;69633;47.066;15.450;2023-07-30T08:49:43;97337.63;;;24.85;62.09
80321;BME280;69633;47.066;15.450;2023-07-30T08:52:10;97330.41;;;25.36;60.29
80321;BME280;69633;47.066;15.450;2023-07-30T08:54:38;97330.44;;;25.90;57.80
80321;BME280;69633;47.066;15.450;2023-07-30T08:57:05;97332.03;;;25.75;58.44
80321;BME280;69633;47.066;15.450;2023-07-30T08:59:43;97343.69;;;26.01;58.02
80321;BME280;69633;47.066;15.450;2023-07-30T09:03:05;97334.47;;;25.98;57.55
80321;BME280;69633;47.066;15.450;2023-07-30T09:05:12;97338.25;;;26.01;57.42
80321;BME280;69633;47.066;15.450;2023-07-30T09:07:39;97342.31;;;26.21;56.85
80321;BME280;69633;47.066;15.450;2023-07-30T09:10:06;97345.66;;;26.51;55.29
80321;BME280;69633;47.066;15.450;2023-07-30T09:12:33;97341.06;;;26.60;55.39
80321;BME280;69633;47.066;15.450;2023-07-30T09:15:02;97339.25;;;26.79;55.37
80321;BME280;69633;47.066;15.450;2023-07-30T09:17:33;97339.47;;;26.84;52.93
80321;BME280;69633;47.066;15.450;2023-07-30T09:20:03;97342.19;;;26.97;51.48
80321;BME280;69633;47.066;15.450;2023-07-30T09:22:33;97338.09;;;27.14;51.64
80321;BME280;69633;47.066;15.450;2023-07-30T09:25:02;97334.25;;;26.90;53.77
80321;BME280;69633;47.066;15.450;2023-07-30T09:27:28;97337.50;;;26.51;54.67
80321;BME280;69633;47.066;15.450;2023-07-30T09:29:55;97330.63;;;26.46;54.68
80321;BME280;69633;47.066;15.450;2023-07-30T09:35:10;97324.06;;;26.69;53.17
80321;BME280;69633;47.066;15.450;2023-07-30T09:37:37;97328.16;;;26.39;53.51
80321;BME280;69633;47.066;15.450;2023-07-30T09:40:06;97326.94;;;26.02;53.80
80321;BME280;69633;47.066;15.450;2023-07-30T09:42:32;97313.88;;;26.35;53.92
80321;BME280;69633;47.066;15.450;2023-07-30T09:45:06;97307.56;;;26.85;53.46
80321;BME280;69633;47.066;15.450;2023-07-30T09:47:38;97314.41;;;27.11;52.99
80321;BME280;69633;47.066;15.450;2023-07-30T09:50:03;97305.44;;;27.23;51.75
80321;BME280;69633;47.066;15.450;2023-07-30T09:52:30;97303.72;;;26.82;53.34
80321;BME280;69633;47.066;15.450;2023-07-30T09:54:57;97315.56;;;27.01;53.88
80321;BME280;69633;47.066;15.450;2023-07-30T09:57:24;97312.03;;;27.13;53.11
80321;BME280;69633;47.066;15.450;2023-07-30T09:59:50;97306.97;;;27.24;50.74
80321;BME280;69633;47.066;15.450;2023-07-30T10:02:17;97309.72;;;27.12;51.46
80321;BME280;69633;47.066;15.450;2023-07-30T10:04:48;97306.84;;;27.06;51.34
80321;BME280;69633;47.066;15.450;2023-07-30T10:07:18;97300.19;;;26.73;52.00
80321;BME280;69633;47.066;15.450;2023-07-30T10:09:46;97297.25;;;26.67;52.84
80321;BME280;69633;47.066;15.450;2023-07-30T10:12:21;97295.66;;;26.92;51.34
80321;BME280;69633;47.066;15.450;2023-07-30T10:14:49;97291.66;;;27.49;50.52
80321;BME280;69633;47.066;15.450;2023-07-30T10:17:18;97292.34;;;27.62;49.05
80321;BME280;69633;47.066;15.450;2023-07-30T10:19:47;97284.19;;;27.18;50.42
80321;BME280;69633;47.066;15.450;2023-07-30T10:25:04;97283.31;;;27.21;49.71
80321;BME280;69633;47.066;15.450;2023-07-30T10:27:40;97293.72;;;27.45;50.30
80321;BME280;69633;47.066;15.450;2023-07-30T10:33:04;97299.34;;;28.61;46.19
80321;BME280;69633;47.066;15.450;2023-07-30T10:35:38;97278.44;;;28.85;46.03
80321;BME280;69633;47.066;15.450;2023-07-30T10:38:29;97282.41;;;28.75;46.09
80321;BME280;69633;47.066;15.450;2023-07-30T10:41:09;97274.66;;;29.01;46.43
80321;BME280;69633;47.066;15.450;2023-07-30T10:43:41;97281.16;;;28.76;46.21
80321;BME280;69633;47.066;15.450;2023-07-30T10:46:13;97293.59;;;28.59;46.52
80321;BME280;69633;47.066;15.450;2023-07-30T10:48:41;97287.91;;;27.86;46.74
80321;BME280;69633;47.066;15.450;2023-07-30T10:51:12;97295.44;;;27.73;47.85
80321;BME280;69633;47.066;15.450;2023-07-30T10:53:43;97287.75;;;27.50;49.55
80321;BME280;69633;47.066;15.450;2023-07-30T10:56:09;97283.63;;;27.23;50.49
80321;BME280;69633;47.066;15.450;2023-07-30T10:58:36;97286.91;;;27.18;51.38
80321;BME280;69633;47.066;15.450;2023-07-30T11:01:05;97282.22;;;26.97;51.26
80321;BME280;69633;47.066;15.450;2023-07-30T11:03:32;97265.25;;;26.93;52.39
80321;BME280;69633;47.066;15.450;2023-07-30T11:05:59;97271.47;;;26.81;51.75
80321;BME280;69633;47.066;15.450;2023-07-30T11:08:43;97271.56;;;26.56;52.78
80321;BME280;69633;47.066;15.450;2023-07-30T11:11:10;97264.47;;;26.24;52.97
80321;BME280;69633;47.066;15.450;2023-07-30T11:13:39;97263.25;;;26.37;51.76
80321;BME280;69633;47.066;15.450;2023-07-30T11:16:24;97253.53;;;26.71;50.84
80321;BME280;69633;47.066;15.450;2023-07-30T11:18:50;97252.09;;;27.22;49.53
80321;BME280;69633;47.066;15.450;2023-07-30T11:21:18;97250.31;;;27.81;49.13
80321;BME280;69633;47.066;15.450;2023-07-30T11:23:44;97259.06;;;28.16;47.79
80321;BME280;69633;47.066;15.450;2023-07-30T11:26:19;97256.06;;;28.32;46.51
80321;BME280;69633;47.066;15.450;2023-07-30T11:28:45;97247.94;;;28.01;46.91
80321;BME280;69633;47.066;15.450;2023-07-30T11:31:29;97249.22;;;28.27;47.02
80321;BME280;69633;47.066;15.450;2023-07-30T11:33:55;97228.78;;;28.41;47.04
80321;BME280;69633;47.066;15.450;2023-07-30T11:36:24;97236.97;;;28.41;47.01
80321;BME280;69633;47.066;15.450;2023-07-30T11:38:52;97227.44;;;28.64;47.47
80321;BME280;69633;47.066;15.450;2023-07-30T11:41:19;97234.09;;;28.72;46.81
80321;BME280;69633;47.066;15.450;2023-07-30T11:43:47;97226.66;;;29.09;45.76
80321;BME280;69633;47.066;15.450;2023-07-30T11:46:17;97239.50;;;29.26;43.77
80321;BME280;69633;47.066;15.450;2023-07-30T11:48:47;97230.16;;;29.09;43.71
80321;BME280;69633;47.066;15.450;2023-07-30T11:51:32;97227.28;;;29.55;43.01
80321;BME280;69633;47.066;15.450;2023-07-30T11:53:59;97223.19;;;29.92;42.76
80321;BME280;69633;47.066;15.450;2023-07-30T11:56:33;97220.47;;;29.83;43.06
80321;BME280;69633;47.066;15.450;2023-07-30T11:59:17;97219.06;;;30.20;42.88
80321;BME280;69633;47.066;15.450;2023-07-30T12:01:46;97214.34;;;29.97;42.27
80321;BME280;69633;47.066;15.450;2023-07-30T12:04:11;97216.53;;;29.84;43.08
80321;BME280;69633;47.066;15.450;2023-07-30T12:06:39;97206.75;;;29.92;42.64
80321;BME280;69633;47.066;15.450;2023-07-30T12:09:24;97206.22;;;30.27;42.03
80321;BME280;69633;47.066;15.450;2023-07-30T12:11:59;97194.88;;;30.43;41.65
80321;BME280;69633;47.066;15.450;2023-07-30T12:14:59;97197.28;;;30.41;41.75
80321;BME280;69633;47.066;15.450;2023-07-30T12:17:25;97198.31;;;30.67;41.02
80321;BME280;69633;47.066;15.450;2023-07-30T12:19:52;97187.53;;;30.49;40.90
80321;BME280;69633;47.066;15.450;2023-07-30T12:22:17;97188.84;;;30.53;41.56
80321;BME280;69633;47.066;15.450;2023-07-30T12:24:44;97183.16;;;30.42;41.76
80321;BME280;69633;47.066;15.450;2023-07-30T12:27:09;97183.50;;;30.74;40.81
80321;BME280;69633;47.066;15.450;2023-07-30T12:29:35;97182.97;;;31.13;40.33
80321;BME280;69633;47.066;15.450;2023-07-30T12:32:00;97174.50;;;30.44;40.56
80321;BME280;69633;47.066;15.450;2023-07-30T12:34:26;97178.19;;;30.55;40.87
80321;BME280;69633;47.066;15.450;2023-07-30T12:36:51;97172.78;;;30.46;41.06
80321;BME280;69633;47.066;15.450;2023-07-30T12:39:17;97172.06;;;29.98;42.37
80321;BME280;69633;47.066;15.450;2023-07-30T12:41:43;97179.72;;;29.85;42.06
80321;BME280;69633;47.066;15.450;2023-07-30T12:44:09;97172.81;;;29.66;43.05
80321;BME280;69633;47.066;15.450;2023-07-30T12:46:34;97173.75;;;29.63;43.59
80321;BME280;69633;47.066;15.450;2023-07-30T12:49:01;97174.16;;;29.38;44.15
80321;BME280;69633;47.066;15.450;2023-07-30T12:51:31;97166.84;;;29.44;43.86
80321;BME280;69633;47.066;15.450;2023-07-30T12:53:57;97168.72;;;29.94;42.71
80321;BME280;69633;47.066;15.450;2023-07-30T12:56:22;97162.41;;;30.65;41.17
80321;BME280;69633;47.066;15.450;2023-07-30T12:58:48;97159.44;;;31.07;40.31
80321;BME280;69633;47.066;15.450;2023-07-30T13:01:14;97165.88;;;31.88;39.14